sensor_id;sensor_type;location;lat;lon;timestamp;temperature;humidity
23323;DHT22;11833;52.554;13.554;2023-12-20T00:01:32;6.90;99.90
23323;DHT22;11833;52.554;13.554;2023-12-20T00:03:58;6.90;99.90
23323;DHT22;11833;52.554;13.554;2023-12-20T00:06:23;6.80;99.90
23323;DHT22;11833;52.554;13.554;2023-12-20T00:08:49;6.90;99.90
23323;DHT22;11833;52.554;13.554;2023-12-20T00:11:15;7.00;99.90
23323;DHT22;11833;52.554;13.554;2023-12-20T00:13:40;6.90;99.90
23323;DHT22;11833;52.554;13.554;2023-12-20T00:16:06;6.80;99.90
23323;DHT22;11833;52.554;13.554;2023-12-20T00:18:32;6.90;99.90
23323;DHT22;11833;52.554;13.554;2023-12-20T00:20:57;6.80;99.90
23323;DHT22;11833;52.554;13.554;2023-12-20T00:23:23;6.80;99.90
23323;DHT22;11833;52.554;13.554;2023-12-20T00:25:49;6.80;99.90
23323;DHT22;11833;52.554;13.554;2023-12-20T00:28:15;6.80;99.90
23323;DHT22;11833;52.554;13.554;2023-12-20T00:30:41;6.80;99.90
23323;DHT22;11833;52.554;13.554;2023-12-20T00:33:06;6.80;99.90
23323;DHT22;11833;52.554;13.554;2023-12-20T00:35:32;6.80;99.90
23323;DHT22;11833;52.554;13.554;2023-12-20T00:37:58;6.80;99.90
23323;DHT22;11833;52.554;13.554;2023-12-20T00:40:24;6.80;99.90
23323;DHT22;11833;52.554;13.554;2023-12-20T00:42:50;6.80;99.90
23323;DHT22;11833;52.554;13.554;2023-12-20T00:45:16;6.80;99.90
23323;DHT22;11833;52.554;13.554;2023-12-20T00:47:42;6.80;99.90
23323;DHT22;11833;52.554;13.554;2023-12-20T00:50:08;6.80;99.90
23323;DHT22;11833;52.554;13.554;2023-12-20T00:52:34;6.90;99.90
23323;DHT22;11833;52.554;13.554;2023-12-20T00:55:00;6.90;99.90
23323;DHT22;11833;52.554;13.554;2023-12-20T00:57:25;6.80;99.90
23323;DHT22;11833;52.554;13.554;2023-12-20T00:59:51;6.80;99.90
23323;DHT22;11833;52.554;13.554;2023-12-20T01:02:17;6.80;99.90
23323;DHT22;11833;52.554;13.554;2023-12-20T01:04:43;6.80;99.90
23323;DHT22;11833;52.554;13.554;2023-12-20T01:07:08;6.90;99.90
23323;DHT22;11833;52.554;13.554;2023-12-20T01:09:34;6.90;99.90
23323;DHT22;11833;52.554;13.554;2023-12-20T01:12:00;6.90;99.90
23323;DHT22;11833;52.554;13.554;2023-12-20T01:14:25;6.90;99.90
23323;DHT22;11833;52.554;13.554;2023-12-20T01:16:51;6.90;99.90
23323;DHT22;11833;52.554;13.554;2023-12-20T01:19:17;6.90;99.90
23323;DHT22;11833;52.554;13.554;2023-12-20T01:21:42;6.90;99.90
23323;DHT22;11833;52.554;13.554;2023-12-20T01:24:08;6.80;99.90
23323;DHT22;11833;52.554;13.554;2023-12-20T01:26:35;6.80;99.90
23323;DHT22;11833;52.554;13.554;2023-12-20T01:29:00;6.90;99.90
23323;DHT22;11833;52.554;13.554;2023-12-20T01:31:26;6.80;99.90
23323;DHT22;11833;52.554;13.554;2023-12-20T01:33:52;6.80;99.90
23323;DHT22;11833;52.554;13.554;2023-12-20T01:36:18;6.80;99.90
23323;DHT22;11833;52.554;13.554;2023-12-20T01:38:45;6.80;99.90
23323;DHT22;11833;52.554;13.554;2023-12-20T01:41:10;6.90;99.90
23323;DHT22;11833;52.554;13.554;2023-12-20T01:43:36;6.80;99.90
23323;DHT22;11833;52.554;13.554;2023-12-20T01:46:02;6.90;99.90
23323;DHT22;11833;52.554;13.554;2023-12-20T01:48:28;6.80;99.90
23323;DHT22;11833;52.554;13.554;2023-12-20T01:50:54;6.90;99.90
23323;DHT22;11833;52.554;13.554;2023-12-20T01:53:22;6.90;99.90
23323;DHT22;11833;52.554;13.554;2023-12-20T01:55:50;6.90;99.90
23323;DHT22;11833;52.554;13.554;2023-12-20T01:58:19;6.90;99.90
23323;DHT22;11833;52.554;13.554;2023-12-20T02:00:44;6.80;99.90
23323;DHT22;11833;52.554;13.554;2023-12-20T02:03:11;6.80;99.90
23323;DHT22;11833;52.554;13.554;2023-12-20T02:05:38;6.80;99.90
23323;DHT22;11833;52.554;13.554;2023-12-20T02:08:04;6.80;99.90
23323;DHT22;11833;52.554;13.554;2023-12-20T02:10:31;6.80;99.90
23323;DHT22;11833;52.554;13.554;2023-12-20T02:12:57;6.80;99.90
23323;DHT22;11833;52.554;13.554;2023-12-20T02:15:24;6.70;99.90
23323;DHT22;11833;52.554;13.554;2023-12-20T02:17:50;6.80;99.90
23323;DHT22;11833;52.554;13.554;2023-12-20T02:20:16;6.80;99.90
23323;DHT22;11833;52.554;13.554;2023-12-20T02:22:41;6.80;99.90
23323;DHT22;11833;52.554;13.554;2023-12-20T02:25:07;6.70;99.90
23323;DHT22;11833;52.554;13.554;2023-12-20T02:27:34;6.70;99.90
23323;DHT22;11833;52.554;13.554;2023-12-20T02:30:00;6.70;99.90
23323;DHT22;11833;52.554;13.554;2023-12-20T02:32:25;6.70;99.90
23323;DHT22;11833;52.554;13.554;2023-12-20T02:34:52;6.70;99.90
23323;DHT22;11833;52.554;13.554;2023-12-20T02:37:17;6.70;99.90
23323;DHT22;11833;52.554;13.554;2023-12-20T02:39:43;6.70;99.90
23323;DHT22;11833;52.554;13.554;2023-12-20T02:42:09;6.70;99.90
23323;DHT22;11833;52.554;13.554;2023-12-20T02:44:34;6.70;99.90
23323;DHT22;11833;52.554;13.554;2023-12-20T02:47:02;6.70;99.90
23323;DHT22;11833;52.554;13.554;2023-12-20T02:49:28;6.60;99.90
23323;DHT22;11833;52.554;13.554;2023-12-20T02:51:53;6.60;99.90
23323;DHT22;11833;52.554;13.554;2023-12-20T02:54:19;6.60;99.90
23323;DHT22;11833;52.554;13.554;2023-12-20T02:56:45;6.60;99.90
23323;DHT22;11833;52.554;13.554;2023-12-20T02:59:10;6.60;99.90
23323;DHT22;11833;52.554;13.554;2023-12-20T03:01:42;6.60;99.90
23323;DHT22;11833;52.554;13.554;2023-12-20T03:04:10;6.60;99.90
23323;DHT22;11833;52.554;13.554;2023-12-20T03:06:36;6.60;99.90
23323;DHT22;11833;52.554;13.554;2023-12-20T03:09:02;6.60;99.90
23323;DHT22;11833;52.554;13.554;2023-12-20T03:11:28;6.60;99.90
23323;DHT22;11833;52.554;13.554;2023-12-20T03:13:54;6.60;99.90
23323;DHT22;11833;52.554;13.554;2023-12-20T03:16:20;6.60;99.90
23323;DHT22;11833;52.554;13.554;2023-12-20T03:18:46;6.50;99.90
23323;DHT22;11833;52.554;13.554;2023-12-20T03:21:12;6.50;99.90
23323;DHT22;11833;52.554;13.554;2023-12-20T03:23:38;6.60;99.90
23323;DHT22;11833;52.554;13.554;2023-12-20T03:26:07;6.50;99.90
23323;DHT22;11833;52.554;13.554;2023-12-20T03:28:33;6.50;99.90
23323;DHT22;11833;52.554;13.554;2023-12-20T03:30:59;6.50;99.90
23323;DHT22;11833;52.554;13.554;2023-12-20T03:33:24;6.50;99.90
23323;DHT22;11833;52.554;13.554;2023-12-20T03:35:50;6.50;99.90
23323;DHT22;11833;52.554;13.554;2023-12-20T03:38:16;6.50;99.90
23323;DHT22;11833;52.554;13.554;2023-12-20T03:40:42;6.60;99.90
23323;DHT22;11833;52.554;13.554;2023-12-20T03:43:07;6.50;99.90
23323;DHT22;11833;52.554;13.554;2023-12-20T03:45:33;6.60;99.90
23323;DHT22;11833;52.554;13.554;2023-12-20T03:47:59;6.50;99.90
23323;DHT22;11833;52.554;13.554;2023-12-20T03:50:26;6.40;99.90
23323;DHT22;11833;52.554;13.554;2023-12-20T03:52:52;6.50;99.90
23323;DHT22;11833;52.554;13.554;2023-12-20T03:55:18;6.40;99.90
23323;DHT22;11833;52.554;13.554;2023-12-20T03:57:44;6.40;99.90
23323;DHT22;11833;52.554;13.554;2023-12-20T04:00:10;6.40;99.90
23323;DHT22;11833;52.554;13.554;2023-12-20T04:02:37;6.40;99.90
23323;DHT22;11833;52.554;13.554;2023-12-20T04:05:04;6.40;99.90
23323;DHT22;11833;52.554;13.554;2023-12-20T04:07:30;6.40;99.90
23323;DHT22;11833;52.554;13.554;2023-12-20T04:09:56;6.30;99.90
23323;DHT22;11833;52.554;13.554;2023-12-20T04:12:22;6.30;99.90
23323;DHT22;11833;52.554;13.554;2023-12-20T04:14:47;6.40;99.90
23323;DHT22;11833;52.554;13.554;2023-12-20T04:17:14;6.30;99.90
23323;DHT22;11833;52.554;13.554;2023-12-20T04:19:41;6.30;99.90
23323;DHT22;11833;52.554;13.554;2023-12-20T04:22:07;6.40;99.90
23323;DHT22;11833;52.554;13.554;2023-12-20T04:24:33;6.30;99.90
23323;DHT22;11833;52.554;13.554;2023-12-20T04:26:59;6.30;99.90
23323;DHT22;11833;52.554;13.554;2023-12-20T04:29:24;6.40;99.90
23323;DHT22;11833;52.554;13.554;2023-12-20T04:31:50;6.30;99.90
23323;DHT22;11833;52.554;13.554;2023-12-20T04:34:19;6.40;99.90
23323;DHT22;11833;52.554;13.554;2023-12-20T04:36:45;6.40;99.90
23323;DHT22;11833;52.554;13.554;2023-12-20T04:39:12;6.40;99.90
23323;DHT22;11833;52.554;13.554;2023-12-20T04:41:38;6.40;99.90
23323;DHT22;11833;52.554;13.554;2023-12-20T04:44:05;6.50;99.90
23323;DHT22;11833;52.554;13.554;2023-12-20T04:46:31;6.40;99.90
23323;DHT22;11833;52.554;13.554;2023-12-20T04:48:57;6.30;99.90
23323;DHT22;11833;52.554;13.554;2023-12-20T04:51:23;6.30;99.90
23323;DHT22;11833;52.554;13.554;2023-12-20T04:53:48;6.30;99.90
23323;DHT22;11833;52.554;13.554;2023-12-20T04:56:14;6.20;99.90
23323;DHT22;11833;52.554;13.554;2023-12-20T04:58:40;6.10;99.90
23323;DHT22;11833;52.554;13.554;2023-12-20T05:01:06;6.10;99.90
23323;DHT22;11833;52.554;13.554;2023-12-20T05:03:33;6.00;99.90
23323;DHT22;11833;52.554;13.554;2023-12-20T05:05:59;6.00;99.90
23323;DHT22;11833;52.554;13.554;2023-12-20T05:08:24;6.00;99.90
23323;DHT22;11833;52.554;13.554;2023-12-20T05:10:51;6.00;99.90
23323;DHT22;11833;52.554;13.554;2023-12-20T05:13:18;5.90;99.90
23323;DHT22;11833;52.554;13.554;2023-12-20T05:15:44;5.90;99.90
23323;DHT22;11833;52.554;13.554;2023-12-20T05:18:09;6.10;99.90
23323;DHT22;11833;52.554;13.554;2023-12-20T05:20:35;6.10;99.90
23323;DHT22;11833;52.554;13.554;2023-12-20T05:23:01;6.30;99.90
23323;DHT22;11833;52.554;13.554;2023-12-20T05:25:26;6.20;99.90
23323;DHT22;11833;52.554;13.554;2023-12-20T05:27:52;6.20;99.90
23323;DHT22;11833;52.554;13.554;2023-12-20T05:30:18;6.30;99.90
23323;DHT22;11833;52.554;13.554;2023-12-20T05:32:44;6.30;99.90
23323;DHT22;11833;52.554;13.554;2023-12-20T05:35:09;6.20;99.90
23323;DHT22;11833;52.554;13.554;2023-12-20T05:37:35;6.20;99.90
23323;DHT22;11833;52.554;13.554;2023-12-20T05:40:01;6.20;99.90
23323;DHT22;11833;52.554;13.554;2023-12-20T05:42:27;6.20;99.90
23323;DHT22;11833;52.554;13.554;2023-12-20T05:44:52;6.10;99.90
23323;DHT22;11833;52.554;13.554;2023-12-20T05:47:18;6.20;99.90
23323;DHT22;11833;52.554;13.554;2023-12-20T05:49:44;6.10;99.90
23323;DHT22;11833;52.554;13.554;2023-12-20T05:52:10;6.00;99.90
23323;DHT22;11833;52.554;13.554;2023-12-20T05:54:36;6.00;99.90
23323;DHT22;11833;52.554;13.554;2023-12-20T05:57:01;5.90;99.90
23323;DHT22;11833;52.554;13.554;2023-12-20T05:59:27;5.90;99.90
23323;DHT22;11833;52.554;13.554;2023-12-20T06:01:53;5.90;99.90
23323;DHT22;11833;52.554;13.554;2023-12-20T06:04:19;5.80;99.90
23323;DHT22;11833;52.554;13.554;2023-12-20T06:06:45;5.90;99.90
23323;DHT22;11833;52.554;13.554;2023-12-20T06:09:10;5.80;99.90
23323;DHT22;11833;52.554;13.554;2023-12-20T06:11:37;5.80;99.90
23323;DHT22;11833;52.554;13.554;2023-12-20T06:14:03;5.80;99.90
23323;DHT22;11833;52.554;13.554;2023-12-20T06:16:28;5.80;99.90
23323;DHT22;11833;52.554;13.554;2023-12-20T06:18:54;5.90;99.90
23323;DHT22;11833;52.554;13.554;2023-12-20T06:21:20;5.80;99.90
23323;DHT22;11833;52.554;13.554;2023-12-20T06:23:46;5.90;99.90
23323;DHT22;11833;52.554;13.554;2023-12-20T06:26:12;5.90;99.90
23323;DHT22;11833;52.554;13.554;2023-12-20T06:28:37;5.90;99.90
23323;DHT22;11833;52.554;13.554;2023-12-20T06:31:03;5.80;99.90
23323;DHT22;11833;52.554;13.554;2023-12-20T06:33:29;5.80;99.90
23323;DHT22;11833;52.554;13.554;2023-12-20T06:35:56;5.70;99.90
23323;DHT22;11833;52.554;13.554;2023-12-20T06:38:23;5.70;99.90
23323;DHT22;11833;52.554;13.554;2023-12-20T06:40:48;5.60;99.90
23323;DHT22;11833;52.554;13.554;2023-12-20T06:43:14;5.70;99.90
23323;DHT22;11833;52.554;13.554;2023-12-20T06:45:40;5.70;99.90
23323;DHT22;11833;52.554;13.554;2023-12-20T06:48:06;5.70;99.90
23323;DHT22;11833;52.554;13.554;2023-12-20T06:50:32;5.60;99.90
23323;DHT22;11833;52.554;13.554;2023-12-20T06:52:58;5.70;99.90
23323;DHT22;11833;52.554;13.554;2023-12-20T06:55:24;5.70;99.90
23323;DHT22;11833;52.554;13.554;2023-12-20T06:57:49;5.80;99.90
23323;DHT22;11833;52.554;13.554;2023-12-20T07:00:15;5.80;99.90
23323;DHT22;11833;52.554;13.554;2023-12-20T07:02:41;5.80;99.90
23323;DHT22;11833;52.554;13.554;2023-12-20T07:05:07;5.80;99.90
23323;DHT22;11833;52.554;13.554;2023-12-20T07:07:33;5.80;99.90
23323;DHT22;11833;52.554;13.554;2023-12-20T07:09:58;5.80;99.90
23323;DHT22;11833;52.554;13.554;2023-12-20T07:12:24;5.80;99.90
23323;DHT22;11833;52.554;13.554;2023-12-20T07:14:50;5.80;99.90
23323;DHT22;11833;52.554;13.554;2023-12-20T07:17:15;5.70;99.90
23323;DHT22;11833;52.554;13.554;2023-12-20T07:19:42;5.80;99.90
23323;DHT22;11833;52.554;13.554;2023-12-20T07:22:09;5.80;99.90
23323;DHT22;11833;52.554;13.554;2023-12-20T07:24:35;5.80;99.90
23323;DHT22;11833;52.554;13.554;2023-12-20T07:27:01;5.80;99.90
23323;DHT22;11833;52.554;13.554;2023-12-20T07:29:27;6.00;99.90
23323;DHT22;11833;52.554;13.554;2023-12-20T07:31:53;6.00;99.90
23323;DHT22;11833;52.554;13.554;2023-12-20T07:34:22;6.00;99.90
23323;DHT22;11833;52.554;13.554;2023-12-20T07:36:48;5.80;99.90
23323;DHT22;11833;52.554;13.554;2023-12-20T07:39:14;6.00;99.90
23323;DHT22;11833;52.554;13.554;2023-12-20T07:41:40;5.90;99.90
23323;DHT22;11833;52.554;13.554;2023-12-20T07:44:06;5.90;99.90
23323;DHT22;11833;52.554;13.554;2023-12-20T07:46:32;6.00;99.90
23323;DHT22;11833;52.554;13.554;2023-12-20T07:48:58;6.00;99.90
23323;DHT22;11833;52.554;13.554;2023-12-20T07:51:23;6.20;99.90
23323;DHT22;11833;52.554;13.554;2023-12-20T07:53:49;6.20;99.90
23323;DHT22;11833;52.554;13.554;2023-12-20T07:56:16;6.00;99.90
23323;DHT22;11833;52.554;13.554;2023-12-20T07:58:42;6.00;99.90
23323;DHT22;11833;52.554;13.554;2023-12-20T08:01:09;6.00;99.90
23323;DHT22;11833;52.554;13.554;2023-12-20T08:03:35;6.10;99.90
23323;DHT22;11833;52.554;13.554;2023-12-20T08:08:27;6.10;99.90
23323;DHT22;11833;52.554;13.554;2023-12-20T08:10:53;6.10;99.90
23323;DHT22;11833;52.554;13.554;2023-12-20T08:13:19;6.10;99.90
23323;DHT22;11833;52.554;13.554;2023-12-20T08:15:45;6.10;99.90
23323;DHT22;11833;52.554;13.554;2023-12-20T08:18:10;6.30;99.90
23323;DHT22;11833;52.554;13.554;2023-12-20T08:20:36;6.30;99.90
23323;DHT22;11833;52.554;13.554;2023-12-20T08:23:02;6.20;99.90
23323;DHT22;11833;52.554;13.554;2023-12-20T08:25:28;6.20;99.90
23323;DHT22;11833;52.554;13.554;2023-12-20T08:27:53;6.10;99.90
23323;DHT22;11833;52.554;13.554;2023-12-20T08:30:19;6.10;99.90
23323;DHT22;11833;52.554;13.554;2023-12-20T08:32:48;6.00;99.90
23323;DHT22;11833;52.554;13.554;2023-12-20T08:35:14;6.00;99.90
23323;DHT22;11833;52.554;13.554;2023-12-20T08:37:39;6.10;99.90
23323;DHT22;11833;52.554;13.554;2023-12-20T08:40:05;6.00;99.90
23323;DHT22;11833;52.554;13.554;2023-12-20T08:42:32;6.00;99.90
23323;DHT22;11833;52.554;13.554;2023-12-20T08:44:58;6.00;99.90
23323;DHT22;11833;52.554;13.554;2023-12-20T08:47:24;6.00;99.90
23323;DHT22;11833;52.554;13.554;2023-12-20T08:49:50;6.30;99.90
23323;DHT22;11833;52.554;13.554;2023-12-20T08:52:16;6.20;99.90
23323;DHT22;11833;52.554;13.554;2023-12-20T08:54:41;6.10;99.90
23323;DHT22;11833;52.554;13.554;2023-12-20T08:57:07;6.20;99.90
23323;DHT22;11833;52.554;13.554;2023-12-20T08:59:33;6.20;99.90
23323;DHT22;11833;52.554;13.554;2023-12-20T09:01:59;6.20;99.90
23323;DHT22;11833;52.554;13.554;2023-12-20T09:04:25;6.30;99.90
23323;DHT22;11833;52.554;13.554;2023-12-20T09:06:50;6.30;99.90
23323;DHT22;11833;52.554;13.554;2023-12-20T09:09:16;6.30;99.90
23323;DHT22;11833;52.554;13.554;2023-12-20T09:11:42;6.40;99.90
23323;DHT22;11833;52.554;13.554;2023-12-20T09:14:08;6.50;99.90
23323;DHT22;11833;52.554;13.554;2023-12-20T09:16:34;6.60;99.90
23323;DHT22;11833;52.554;13.554;2023-12-20T09:18:59;6.60;99.90
23323;DHT22;11833;52.554;13.554;2023-12-20T09:21:25;6.60;99.90
23323;DHT22;11833;52.554;13.554;2023-12-20T09:23:51;6.60;99.90
23323;DHT22;11833;52.554;13.554;2023-12-20T09:26:17;6.60;99.90
23323;DHT22;11833;52.554;13.554;2023-12-20T09:28:43;6.60;99.90
23323;DHT22;11833;52.554;13.554;2023-12-20T09:31:10;6.70;99.90
23323;DHT22;11833;52.554;13.554;2023-12-20T09:33:36;7.00;99.90
23323;DHT22;11833;52.554;13.554;2023-12-20T09:36:02;6.90;99.90
23323;DHT22;11833;52.554;13.554;2023-12-20T09:38:28;7.00;99.90
23323;DHT22;11833;52.554;13.554;2023-12-20T09:40:54;7.00;99.90
23323;DHT22;11833;52.554;13.554;2023-12-20T09:43:20;7.10;99.90
23323;DHT22;11833;52.554;13.554;2023-12-20T09:45:53;7.20;99.90
23323;DHT22;11833;52.554;13.554;2023-12-20T09:48:19;7.00;99.90
23323;DHT22;11833;52.554;13.554;2023-12-20T09:50:45;7.00;99.90
23323;DHT22;11833;52.554;13.554;2023-12-20T09:53:15;7.00;99.90
23323;DHT22;11833;52.554;13.554;2023-12-20T09:55:42;7.20;99.90
23323;DHT22;11833;52.554;13.554;2023-12-20T09:58:08;7.10;99.90
23323;DHT22;11833;52.554;13.554;2023-12-20T10:00:37;7.10;99.90
23323;DHT22;11833;52.554;13.554;2023-12-20T10:03:03;7.10;99.90
23323;DHT22;11833;52.554;13.554;2023-12-20T10:05:32;7.20;99.90
23323;DHT22;11833;52.554;13.554;2023-12-20T10:08:00;7.00;99.90
23323;DHT22;11833;52.554;13.554;2023-12-20T10:10:26;7.00;99.90
23323;DHT22;11833;52.554;13.554;2023-12-20T10:13:09;7.10;99.90
23323;DHT22;11833;52.554;13.554;2023-12-20T10:15:36;7.10;99.90
23323;DHT22;11833;52.554;13.554;2023-12-20T10:18:03;7.10;99.90
23323;DHT22;11833;52.554;13.554;2023-12-20T10:20:30;7.10;99.90
23323;DHT22;11833;52.554;13.554;2023-12-20T10:22:57;7.10;99.90
23323;DHT22;11833;52.554;13.554;2023-12-20T10:25:24;7.10;99.90
23323;DHT22;11833;52.554;13.554;2023-12-20T10:28:09;7.00;99.90
23323;DHT22;11833;52.554;13.554;2023-12-20T10:30:39;7.20;99.90
23323;DHT22;11833;52.554;13.554;2023-12-20T10:33:07;7.30;99.90
23323;DHT22;11833;52.554;13.554;2023-12-20T10:35:36;7.20;99.90
23323;DHT22;11833;52.554;13.554;2023-12-20T10:38:04;6.90;99.90
23323;DHT22;11833;52.554;13.554;2023-12-20T10:40:36;6.80;99.90
23323;DHT22;11833;52.554;13.554;2023-12-20T10:43:02;6.80;99.90
23323;DHT22;11833;52.554;13.554;2023-12-20T10:45:29;6.70;99.90
23323;DHT22;11833;52.554;13.554;2023-12-20T10:47:56;6.60;99.90
23323;DHT22;11833;52.554;13.554;2023-12-20T10:50:25;6.50;99.90
23323;DHT22;11833;52.554;13.554;2023-12-20T10:52:52;6.60;99.90
23323;DHT22;11833;52.554;13.554;2023-12-20T10:55:22;6.60;99.90
23323;DHT22;11833;52.554;13.554;2023-12-20T10:57:51;6.80;99.90
23323;DHT22;11833;52.554;13.554;2023-12-20T11:00:18;6.90;99.90
23323;DHT22;11833;52.554;13.554;2023-12-20T11:02:45;7.00;99.90
23323;DHT22;11833;52.554;13.554;2023-12-20T11:05:40;6.90;99.90
23323;DHT22;11833;52.554;13.554;2023-12-20T11:08:17;6.90;99.90
23323;DHT22;11833;52.554;13.554;2023-12-20T11:11:03;6.80;99.90
23323;DHT22;11833;52.554;13.554;2023-12-20T11:14:00;6.70;99.90
23323;DHT22;11833;52.554;13.554;2023-12-20T11:16:30;6.80;99.90
23323;DHT22;11833;52.554;13.554;2023-12-20T11:18:56;6.90;99.90
23323;DHT22;11833;52.554;13.554;2023-12-20T11:21:22;6.80;99.90
23323;DHT22;11833;52.554;13.554;2023-12-20T11:23:48;6.90;99.90
23323;DHT22;11833;52.554;13.554;2023-12-20T11:26:16;6.90;99.90
23323;DHT22;11833;52.554;13.554;2023-12-20T11:28:42;6.80;99.90
23323;DHT22;11833;52.554;13.554;2023-12-20T11:31:08;6.70;99.90
23323;DHT22;11833;52.554;13.554;2023-12-20T11:33:37;6.80;99.90
23323;DHT22;11833;52.554;13.554;2023-12-20T11:36:03;6.70;99.90
23323;DHT22;11833;52.554;13.554;2023-12-20T11:38:38;6.80;99.90
23323;DHT22;11833;52.554;13.554;2023-12-20T11:41:07;7.00;99.90
23323;DHT22;11833;52.554;13.554;2023-12-20T11:43:37;7.00;99.90
23323;DHT22;11833;52.554;13.554;2023-12-20T11:46:07;6.70;99.90
23323;DHT22;11833;52.554;13.554;2023-12-20T11:48:36;6.70;99.90
23323;DHT22;11833;52.554;13.554;2023-12-20T11:51:09;6.60;99.90
23323;DHT22;11833;52.554;13.554;2023-12-20T11:53:36;6.50;99.90
23323;DHT22;11833;52.554;13.554;2023-12-20T11:56:04;6.60;99.90
23323;DHT22;11833;52.554;13.554;2023-12-20T11:58:31;6.60;99.90
23323;DHT22;11833;52.554;13.554;2023-12-20T12:00:57;6.60;99.90
23323;DHT22;11833;52.554;13.554;2023-12-20T12:03:23;6.70;99.90
23323;DHT22;11833;52.554;13.554;2023-12-20T12:05:49;6.70;99.90
23323;DHT22;11833;52.554;13.554;2023-12-20T12:08:17;6.70;99.90
23323;DHT22;11833;52.554;13.554;2023-12-20T12:10:44;6.60;99.90
23323;DHT22;11833;52.554;13.554;2023-12-20T12:13:10;6.70;99.90
23323;DHT22;11833;52.554;13.554;2023-12-20T12:15:36;6.80;99.90
23323;DHT22;11833;52.554;13.554;2023-12-20T12:18:03;6.90;99.90
23323;DHT22;11833;52.554;13.554;2023-12-20T12:20:30;6.80;99.90
23323;DHT22;11833;52.554;13.554;2023-12-20T12:23:04;6.80;99.90
23323;DHT22;11833;52.554;13.554;2023-12-20T12:25:31;6.80;99.90
23323;DHT22;11833;52.554;13.554;2023-12-20T12:28:00;6.90;99.90
23323;DHT22;11833;52.554;13.554;2023-12-20T12:30:27;6.80;99.90
23323;DHT22;11833;52.554;13.554;2023-12-20T12:32:53;6.80;99.90
23323;DHT22;11833;52.554;13.554;2023-12-20T12:35:20;6.70;99.90
23323;DHT22;11833;52.554;13.554;2023-12-20T12:37:46;6.70;99.90
23323;DHT22;11833;52.554;13.554;2023-12-20T12:40:13;6.60;99.90
23323;DHT22;11833;52.554;13.554;2023-12-20T12:42:40;6.70;99.90
23323;DHT22;11833;52.554;13.554;2023-12-20T12:45:07;6.80;99.90
23323;DHT22;11833;52.554;13.554;2023-12-20T12:47:34;6.70;99.90
23323;DHT22;11833;52.554;13.554;2023-12-20T12:50:00;6.60;99.90
23323;DHT22;11833;52.554;13.554;2023-12-20T12:52:26;6.50;99.90
23323;DHT22;11833;52.554;13.554;2023-12-20T12:54:52;6.40;99.90
23323;DHT22;11833;52.554;13.554;2023-12-20T12:57:18;6.30;99.90
23323;DHT22;11833;52.554;13.554;2023-12-20T12:59:45;6.20;99.90
23323;DHT22;11833;52.554;13.554;2023-12-20T13:02:15;6.40;99.90
23323;DHT22;11833;52.554;13.554;2023-12-20T13:04:41;6.40;99.90
23323;DHT22;11833;52.554;13.554;2023-12-20T13:07:08;6.40;99.90
23323;DHT22;11833;52.554;13.554;2023-12-20T13:09:37;6.30;99.90
23323;DHT22;11833;52.554;13.554;2023-12-20T13:12:04;6.30;99.90
23323;DHT22;11833;52.554;13.554;2023-12-20T13:14:33;6.30;99.90
23323;DHT22;11833;52.554;13.554;2023-12-20T13:17:03;6.20;99.90
23323;DHT22;11833;52.554;13.554;2023-12-20T13:19:29;6.20;99.90
23323;DHT22;11833;52.554;13.554;2023-12-20T13:21:56;6.20;99.90
23323;DHT22;11833;52.554;13.554;2023-12-20T13:24:21;6.10;99.90
23323;DHT22;11833;52.554;13.554;2023-12-20T13:26:47;6.10;99.90
23323;DHT22;11833;52.554;13.554;2023-12-20T13:29:13;6.10;99.90
23323;DHT22;11833;52.554;13.554;2023-12-20T13:31:38;6.00;99.90
23323;DHT22;11833;52.554;13.554;2023-12-20T13:34:06;6.00;99.90
23323;DHT22;11833;52.554;13.554;2023-12-20T13:36:32;6.00;99.90
23323;DHT22;11833;52.554;13.554;2023-12-20T13:38:57;5.90;99.90
23323;DHT22;11833;52.554;13.554;2023-12-20T13:41:23;5.90;99.90
23323;DHT22;11833;52.554;13.554;2023-12-20T13:43:49;5.80;99.90
23323;DHT22;11833;52.554;13.554;2023-12-20T13:46:15;5.80;99.90
23323;DHT22;11833;52.554;13.554;2023-12-20T13:48:40;5.80;99.90
23323;DHT22;11833;52.554;13.554;2023-12-20T13:51:07;5.80;99.90
23323;DHT22;11833;52.554;13.554;2023-12-20T13:53:33;5.80;99.90
23323;DHT22;11833;52.554;13.554;2023-12-20T13:55:58;5.90;99.90
23323;DHT22;11833;52.554;13.554;2023-12-20T13:58:25;5.90;99.90
23323;DHT22;11833;52.554;13.554;2023-12-20T14:00:51;5.80;99.90
23323;DHT22;11833;52.554;13.554;2023-12-20T14:03:17;5.80;99.90
23323;DHT22;11833;52.554;13.554;2023-12-20T14:05:42;5.70;99.90
23323;DHT22;11833;52.554;13.554;2023-12-20T14:08:08;5.70;99.90
23323;DHT22;11833;52.554;13.554;2023-12-20T14:10:35;5.80;99.90
23323;DHT22;11833;52.554;13.554;2023-12-20T14:13:01;6.00;99.90
23323;DHT22;11833;52.554;13.554;2023-12-20T14:15:26;6.00;99.90
23323;DHT22;11833;52.554;13.554;2023-12-20T14:17:52;6.00;99.90
23323;DHT22;11833;52.554;13.554;2023-12-20T14:20:18;5.90;99.90
23323;DHT22;11833;52.554;13.554;2023-12-20T14:22:44;6.00;99.90
23323;DHT22;11833;52.554;13.554;2023-12-20T14:25:11;5.90;99.90
23323;DHT22;11833;52.554;13.554;2023-12-20T14:27:38;5.90;99.90
23323;DHT22;11833;52.554;13.554;2023-12-20T14:30:05;5.90;99.90
23323;DHT22;11833;52.554;13.554;2023-12-20T14:32:31;5.90;99.90
23323;DHT22;11833;52.554;13.554;2023-12-20T14:34:58;5.90;99.90
23323;DHT22;11833;52.554;13.554;2023-12-20T14:37:24;6.00;99.90
23323;DHT22;11833;52.554;13.554;2023-12-20T14:39:49;5.90;99.90
23323;DHT22;11833;52.554;13.554;2023-12-20T14:42:15;5.90;99.90
23323;DHT22;11833;52.554;13.554;2023-12-20T14:44:41;5.90;99.90
23323;DHT22;11833;52.554;13.554;2023-12-20T14:47:06;6.10;99.90
23323;DHT22;11833;52.554;13.554;2023-12-20T14:49:32;6.00;99.90
23323;DHT22;11833;52.554;13.554;2023-12-20T14:51:58;6.00;99.90
23323;DHT22;11833;52.554;13.554;2023-12-20T14:54:24;5.90;99.90
23323;DHT22;11833;52.554;13.554;2023-12-20T14:56:50;5.80;99.90
23323;DHT22;11833;52.554;13.554;2023-12-20T14:59:16;5.70;99.90
23323;DHT22;11833;52.554;13.554;2023-12-20T15:01:43;5.70;99.90
23323;DHT22;11833;52.554;13.554;2023-12-20T15:04:09;5.70;99.90
23323;DHT22;11833;52.554;13.554;2023-12-20T15:06:35;5.70;99.90
23323;DHT22;11833;52.554;13.554;2023-12-20T15:09:01;5.80;99.90
23323;DHT22;11833;52.554;13.554;2023-12-20T15:11:33;5.70;99.90
23323;DHT22;11833;52.554;13.554;2023-12-20T15:13:59;5.80;99.90
23323;DHT22;11833;52.554;13.554;2023-12-20T15:16:26;5.70;99.90
23323;DHT22;11833;52.554;13.554;2023-12-20T15:18:52;6.00;99.90
23323;DHT22;11833;52.554;13.554;2023-12-20T15:21:19;6.00;99.90
23323;DHT22;11833;52.554;13.554;2023-12-20T15:23:46;5.80;99.90
23323;DHT22;11833;52.554;13.554;2023-12-20T15:26:21;5.70;99.90
23323;DHT22;11833;52.554;13.554;2023-12-20T15:28:47;5.70;99.90